Racecast

Cadence Schultz

East Kentwood (MI) · 12 · OK REDMI D1KENT-OTTAWA · Compare head to head

Athlete rating 129.7 2023 TF season
Best race 140.1 XC
Races 94
Seasons 6 2018 — 2023

RankedNation #2730·MI #124·MI D1 #75·OK RED #9·Team #2 ?

Rating scale ?

Cross Country

2022 XC 135.1

East Kentwood (MI) · Grade 12

Date Meet Event Result Place Rating Difficulty PR/SR Flags
2022-10-28 Portage West MS 5000m 22:16.3 71st · 5th on team 121.8 +0.038
2022-10-20 Riverside Park 5000m 20:14 27th · 2nd on team 132.7 +0.025
2022-10-08 Portage West MS 5000m 19:43.3 63rd · 1st on team 136.4 +0.038 ★CR CSR
2022-10-04 Calvin College - Gainey Athletic Complex 5000m 19:35.4 7th · 1st on team 139.0 +0.036 ★CR CSR RSR
2022-10-01 Otsego HS 5000m 19:27.7 10th · 1st on team 138.1 +0.023 ★CR SR CSR RSR
2022-09-24 Ella Sharp Park OFFICIAL 5000m 19:29.9 22nd · 1st on team 137.4 +0.038 ★CR SR CSR
2022-09-20 South Christian Athletic Fields 5000m 19:44.8 12th · 1st on team 136.8 +0.045 ★CR SR CSR
2022-09-16 Riverside Park 5000m 19:56 17th · 1st on team 135.1 +0.024 SR CSR
2022-09-10 Bath 5000m 20:08.9 16th · 1st on team 137.6 +0.053 ★CR SR CSR RSR
2022-08-26 South Christian Sports Park 5000m 20:12.6 14th · 1st on team 136.1 +0.045 ★CR SR CSR RSR

2021 XC 136.2

East Kentwood (MI) · Grade 11

Date Meet Event Result Place Rating Difficulty PR/SR Flags
2021-11-06 Michigan International Speedway (MIS) 5000m 19:24.2 84th · 1st on team 138.6 +0.022 ★PR ★CR SR CSR
2021-10-30 Allendale HS 5000m 19:33.8 15th · 1st on team 137.2 +0.021 ★CR CSR
2021-10-21 Riverside Park 5000m 19:26.2 11th · 1st on team 140.1 +0.025 PR ★CR ★R SR CSR RSR
2021-10-16 Calvin College - Gainey Athletic Complex 5000m 20:59.9 20th · 1st on team 130.4 +0.036 CR CSR
2021-10-05 Macatawa Bay MS - West Ottawa 5000m 19:48.1 6th · 1st on team 139.6 +0.056 ★CR CSR
2021-10-02 Otsego HS 5000m 19:43.7 9th · 1st on team 136.3 +0.023 CR CSR
2021-09-25 Ella Sharp Park OFFICIAL 5000m 20:21.5 42nd · 1st on team 135.2 +0.038 CR CSR
2021-09-21 Grand Haven High School 5000m 19:43.6 11th · 1st on team 139.8 +0.055 PR ★CR R SR CSR RSR
2021-09-17 Riverside Park 5000m 20:13.3 22nd · 1st on team 134.9 +0.024 PR CR R SR CSR RSR
2021-09-11 Bath 5000m 21:10 33rd · 1st on team 132.4 +0.053 CR CSR
2021-08-27 South Christian Sports Park 5000m 20:44.8 8th · 1st on team 133.6 +0.045 PR CR SR CSR RSR

2020 XC 127.6

East Kentwood (MI) · Grade 10

Date Meet Event Result Place Rating Difficulty PR/SR Flags
2020-10-24 Harbor Lights Middle School 5000m 21:33.6 35th · 2nd on team 126.7 +0.038 ★CR CSR
2020-10-17 Riverside Park 5000m 20:56.5 40th · 2nd on team 128.7 +0.024 CR SR CSR
2020-10-13 Caledonia HS 5000m 21:20.3 5th · 2nd on team 131.8 +0.064 ★CR CSR RSR
2020-10-06 East Kentwood High School 5000m 21:39.2 6th · 1st on team 131.6 +0.077 RSR
2020-09-29 East Kentwood High School 5000m 21:24.6 5th · 1st on team 131.5 +0.077 ★CR CSR RSR
2020-09-22 Grand Haven High School 5000m 21:34.8 8th · 2nd on team 129.8 +0.055 CR CSR RSR
2020-09-18 Riverside Park 5000m 21:08.7 24th · 2nd on team 126.4 +0.025 CR SR CSR
2020-09-15 East Kentwood High School 5000m 22:27.2 2nd · 1st on team 126.5 +0.077 CSR RSR
2020-09-10 East Kentwood High School 5000m 22:37.7 10th · 3rd on team 123.7 +0.077 CSR
2020-09-01 Macatawa Bay MS - West Ottawa 5000m 22:13.4 6th · 2nd on team 125.1 +0.056 CR SR CSR RSR
2020-08-29 East Kentwood High School 5000m 23:14 6th · 2nd on team 122.3 +0.077 SR CSR RSR

2019 XC 125.4

East Kentwood (MI) · Grade 9

Date Meet Event Result Place Rating Difficulty PR/SR Flags
2019-10-26 Portage West MS 5000m 20:50.7 50th · 2nd on team 129.3 +0.038 PR CR SR CSR
2019-10-12 Calvin College - Gainey Athletic Complex 5000m 22:01.2 40th · 3rd on team 123.2 +0.036 CR CSR
2019-10-09 East Kentwood High School 5000m 21:55.7 28th · 1st on team 128.9 +0.077 CR CSR
2019-09-28 Otsego HS 5000m 21:45.9 51st · 3rd on team 123.1 +0.023 CR CSR
2019-09-21 Ella Sharp Park OFFICIAL 5000m 21:38.5 93rd · 3rd on team 125.3 +0.038 CR CSR
2019-09-17 East Rockford MS 5000m 21:16.8 21st · 2nd on team 129.7 +0.063 PR ★CR SR CSR RSR
2019-09-13 Forest Akers East Golf Course 5000m 22:04.5 85th · 1st on team 126.8 +0.061 PR ★CR SR CSR RSR
2019-09-07 Macatawa Bay MS - West Ottawa 5000m 23:30 92nd · 4th on team 117.1 +0.056 PR CR SR CSR RSR

Track & Field

2023 TF 124.6

East Kentwood (MI) · Grade 12

Date Meet Event Result Place Rating Difficulty PR/SR Flags
2023-06-03 2023 MHSAA LP D1 State T&F Championships 800m 2:23.17 22nd · 1st on team 128.6 -0.034
2023-05-26 2023 MITCA D1 Team State 800m 2:23.62 10th · 1st on team 128.1 -0.033
2023-05-19 MHSAA LP Region 03-1 @ Portage Central 800m 2:18.91 3rd · 1st on team 134.0 -0.022 ★PR SR RSR
2023-05-12 OK Red Conference Meet 800m 2:29.75 15th · 2nd on team 122.7 -0.031
2023-05-05 Ken Bell Invitational 200m 27.26 4th · 2nd on team -0.038 ★PR SR
2023-05-03 Jenison, West Ottawa @ East Kentwood 800m 2:24.12 2nd · 1st on team 128.6 -0.032 SR RSR
2023-04-28 Don Lukens Invitational 1600m 5:44.64 3rd · 1st on team 119.0 -0.031 SR
2023-04-26 Rockford @ East Kentwood 800m 2:26.44 1st · 1st on team 125.4 -0.032 SR RSR
2023-04-19 Caledonia and EK at Grand Haven 400m 1:01.51 1st · 1st on team -0.033 SR
2023-04-15 Mansfield/Mehock Relays 800m 2:36.29 4th · 2nd on team 117.3 -0.035
2023-04-12 EK and Grandville at Hudsonville 200m 27.41 2nd · 2nd on team -0.031 PR SR
2023-03-23 GVSU Laker Challenge - Girls 800m 2:34.89 16th · 3rd on team 117.6 -0.042 SR RSR

2022 TF 122.3

East Kentwood (MI) · Grade 11

Date Meet Event Result Place Rating Difficulty PR/SR Flags
2022-05-13 OK Red Conference Championship 800m 2:24.47 6th · 1st on team 128.0 -0.034
2022-05-09 OK Red East Kentwood @ Jenison 400m 1:00.36 1st · 1st on team -0.024 ★PR SR
2022-05-06 Ken Bell Invitational 1600m 5:45.41 3rd · 1st on team 118.4 -0.038
2022-05-04 Grand Haven @East Kentwood 800m 2:23.18 2nd · 1st on team 128.7 -0.032 PR SR RSR
2022-05-02 East Kentwood at Hudsonville 1600m 5:36.87 1st · 1st on team 122.2 -0.031
2022-04-29 Charlie Janke Track & Field Invitational 800m 2:26.73 5th · 1st on team 125.2 -0.037 PR SR RSR
2022-04-27 East Kentwood at Caledonia 1600m 5:32.58 1st · 1st on team 124.0 -0.027 ★PR SR
2022-04-27 East Kentwood at Caledonia 800m 2:35.69 2nd · 2nd on team 119.2 -0.027
2022-04-25 Grandville @ East Kentwood 800m 2:36.17 1st · 1st on team 119.0 -0.032
2022-04-20 East Kentwood at Rockford HS 3200m 12:33.66 2nd · 1st on team 117.4 -0.034 SR
2022-04-20 East Kentwood at Rockford HS 1600m 5:41.02 1st · 1st on team 120.5 -0.034
2022-04-16 Mansfield Mehock Relays 800m 2:28.41 2nd · 1st on team 124.2 -0.035 RSR
2022-04-13 West Ottawa @ East Kentwood 1600m 5:42.5 6th · 1st on team 120.3 -0.032
2022-03-24 GVSU Laker Challenge - Girls 800m 2:28.02 6th · 1st on team 123.5 -0.042 PR SR RSR
2022-01-29 MITS - GVSU Meet #4 1600m 5:34.86 30th · 26th on team 121.4 -0.042 PR SR RSR

2021 TF 118.3

East Kentwood (MI) · Grade 10

Date Meet Event Result Place Rating Difficulty PR/SR Flags
2021-05-28 2021 MITCA D1 Team State 1600m 5:36.84 10th · 1st on team 124.3 -0.026 PR SR RSR
2021-05-28 2021 MITCA D1 Team State 3200m 12:31.79 12th · 1st on team 120.1 -0.026 ★PR SR
2021-05-21 MHSAA LP Region 03-1 @ Portage Central 1600m 5:44.07 14th · 1st on team 121.1 -0.022 PR SR RSR
2021-05-14 OK Red Conference Meet 1600m 5:47.38 16th · 1st on team 118.4 -0.033 PR SR
2021-05-10 OK Red Jenison at East Kentwood 800m 2:34.36 3rd · 2nd on team 120.5 -0.032 SR RSR
2021-05-07 Ken Bell Invite 2021 800m 2:44.6 6th · 1st on team 112.5 -0.038 SR
2021-05-05 Hudsonville at East Kentwood 400m 1:12.17 4th · 3rd on team -0.032
2021-05-05 Hudsonville at East Kentwood 1600m 5:52.63 3rd · 1st on team 117.4 -0.032 PR SR RSR
2021-04-26 OK RED- Rockford at East Kentwood 400m 1:06 5th · 1st on team -0.032 PR SR
2021-04-19 East Kentwood at West Ottawa 1600m 6:00.97 5th · 1st on team 115.5 -0.024 RSR
2021-04-17 Splitter Relays 1600m 5:56.84 9th · 2nd on team 114.9 -0.032 PR SR RSR

2019 TF 119.7

Pinewood (MI) · Grade 8

Date Meet Event Result Place Rating Difficulty PR/SR Flags
2019-05-20 MKO Girls Conference Meet 800m 2:31.53 1st · 1st on team 134.2 -0.031 PR R SR RSR
2019-05-13 Pinewood vs West Ottawa and Byron center 800m 2:37.59 1st · 1st on team 128.1 -0.032 PR R SR RSR
2019-05-09 East Kentwood Middle School Tri Meet 800m 2:47.43 1st · 1st on team 121.1 -0.032 SR RSR
2019-04-23 Valleywood vs Pinewood 800m 2:55.09 1st · 1st on team 115.4 -0.032 SR
2019-04-18 East Kentwood Pinewood at Mona Shores MS 800m 2:55.3 1st · 1st on team 115.5 -0.028 SR RSR
2019-04-16 Pinewood vs. Crestwood 800m 2:57 1st · 1st on team 113.2 -0.032 SR RSR
2019-04-09 Pinewood vs. Hudsonville 800m 3:01.86 1st · 1st on team 110.7 -0.032 SR RSR

2018 TF 120.2

Pinewood (MI) · Grade 7

Date Meet Event Result Place Rating Difficulty PR/SR Flags
2018-05-22 MKO MS at Hamilton 800m 2:44.88 7th · 1st on team 122.1 -0.031 PR R SR RSR
2018-05-16 Tri-meet Crestwood, Pinewood and Valleywood 800m 2:47.88 2nd · 1st on team 119.5 -0.032
2018-05-16 Tri-meet Crestwood, Pinewood and Valleywood 200m 30.89 5th · 4th on team -0.032
2018-05-14 pinewood @ north rockford 200m 30.24 3rd · 3rd on team -0.028 PR SR
2018-05-14 pinewood @ north rockford 800m 2:45 1st · 1st on team 121.8 -0.028 PR R SR RSR
2018-05-09 Pinewood vs Byron Center and Jenison 200m 31.27 4th · 2nd on team -0.032
2018-05-09 Pinewood vs Byron Center and Jenison 800m 2:49.84 1st · 1st on team 118.3 -0.032
2018-05-02 Pinewood vs Grandville and Valleywood 800m 2:48.89 1st · 1st on team 119.0 -0.032 PR R SR RSR
2018-05-02 Pinewood vs Grandville and Valleywood 200m 31.11 5th · 3rd on team -0.032 PR SR